Time;durP1;ratioP1;P1;durP2;ratioP2;P2;SDS_P1;SDS_P2;PMS_P1;PMS_P2;Temp;Humidity;BMP_temperature;BMP_pressure;BME280_temperature;BME280_humidity;BME280_pressure;Samples;Min_cycle;Max_cycle;Signal;HPM_P1;HPM_P2
2023/10/21 00:02:16;;;;;;;1.17;0.82;;;16.10;72.10;;;;;;5040674;28;20045;-44
2023/10/21 00:04:43;;;;;;;3.92;1.00;;;16.10;72.20;;;;;;5041237;28;20052;-45
2023/10/21 00:07:11;;;;;;;1.45;0.80;;;16.20;72.30;;;;;;5037367;28;20067;-46
2023/10/21 00:09:38;;;;;;;3.75;0.80;;;16.20;72.30;;;;;;5039654;28;20053;-46
2023/10/21 00:12:06;;;;;;;1.58;0.73;;;16.20;72.40;;;;;;5042190;28;20060;-43
2023/10/21 00:14:35;;;;;;;2.90;0.90;;;16.20;72.40;;;;;;5039642;28;20528;-45
2023/10/21 00:17:03;;;;;;;2.65;1.85;;;16.20;72.40;;;;;;5037261;28;20060;-45
2023/10/21 00:19:30;;;;;;;3.28;0.75;;;16.20;72.40;;;;;;5040473;28;20060;-44
2023/10/21 00:21:58;;;;;;;1.77;0.75;;;16.20;72.40;;;;;;5039584;28;20049;-45
2023/10/21 00:24:26;;;;;;;3.42;0.70;;;16.20;72.40;;;;;;5038688;28;20523;-43
2023/10/21 00:26:53;;;;;;;2.25;0.80;;;16.20;72.40;;;;;;5041280;28;20053;-43
2023/10/21 00:29:20;;;;;;;1.67;0.70;;;16.20;72.50;;;;;;5040317;28;20610;-43
2023/10/21 00:31:49;;;;;;;1.20;0.73;;;16.30;72.60;;;;;;5038945;28;20060;-44
2023/10/21 00:34:17;;;;;;;1.20;0.70;;;16.20;72.60;;;;;;5037148;28;20053;-44
2023/10/21 00:36:44;;;;;;;2.00;0.80;;;16.20;72.60;;;;;;5039942;28;20056;-48
2023/10/21 00:39:11;;;;;;;2.20;0.80;;;16.30;72.70;;;;;;5039526;28;20045;-46
2023/10/21 00:41:39;;;;;;;2.30;1.10;;;16.30;72.70;;;;;;5039029;28;20052;-47
2023/10/21 00:44:06;;;;;;;1.83;0.85;;;16.30;72.70;;;;;;5039551;28;20489;-44
2023/10/21 00:46:34;;;;;;;2.63;1.02;;;16.30;72.80;;;;;;5038611;28;20056;-48
2023/10/21 00:49:04;;;;;;;2.05;1.15;;;16.30;72.70;;;;;;5040360;28;20045;-46
2023/10/21 00:51:32;;;;;;;3.03;1.00;;;16.30;72.80;;;;;;5039544;28;20580;-47
2023/10/21 00:54:01;;;;;;;1.67;0.73;;;16.30;72.80;;;;;;5037710;28;20064;-45
2023/10/21 00:56:28;;;;;;;2.78;1.20;;;16.30;72.80;;;;;;5038951;28;20057;-47
2023/10/21 00:58:56;;;;;;;0.70;0.70;;;16.30;72.90;;;;;;5040011;28;20517;-45
2023/10/21 01:01:23;;;;;;;1.60;0.90;;;16.30;72.80;;;;;;5037176;28;20061;-43
2023/10/21 01:03:50;;;;;;;1.20;0.70;;;16.30;72.80;;;;;;5038519;28;20049;-44
2023/10/21 01:06:19;;;;;;;2.25;0.70;;;16.30;72.90;;;;;;5037279;28;20230;-46
2023/10/21 01:08:46;;;;;;;0.90;0.82;;;16.30;72.90;;;;;;5037725;28;20053;-44
2023/10/21 01:11:14;;;;;;;1.52;0.50;;;16.30;73.00;;;;;;5040939;28;20063;-46
2023/10/21 01:13:43;;;;;;;1.08;0.60;;;16.30;73.00;;;;;;5043553;28;20049;-44
2023/10/21 01:16:10;;;;;;;1.63;0.70;;;16.30;73.00;;;;;;5039990;28;20057;-47
2023/10/21 01:18:39;;;;;;;1.67;0.82;;;16.30;73.10;;;;;;5041855;28;20056;-44
2023/10/21 01:21:06;;;;;;;0.75;0.65;;;16.30;73.10;;;;;;5044360;28;20053;-42
2023/10/21 01:23:35;;;;;;;1.35;0.65;;;16.40;73.20;;;;;;5041363;28;20056;-43
2023/10/21 01:26:03;;;;;;;3.75;0.60;;;16.40;73.30;;;;;;5042442;28;20430;-42
2023/10/21 01:28:30;;;;;;;1.10;0.70;;;16.40;73.30;;;;;;5041529;28;20057;-43
2023/10/21 01:30:58;;;;;;;2.20;0.60;;;16.40;73.30;;;;;;5042733;28;20064;-42
2023/10/21 01:33:25;;;;;;;0.82;0.63;;;16.40;73.30;;;;;;5041782;28;20052;-46
2023/10/21 01:35:52;;;;;;;1.08;0.50;;;16.40;73.30;;;;;;5044541;28;20064;-42
2023/10/21 01:38:20;;;;;;;1.00;0.63;;;16.40;73.40;;;;;;5041667;28;20061;-42
2023/10/21 01:40:49;;;;;;;0.80;0.55;;;16.40;73.40;;;;;;5043621;28;20061;-43
2023/10/21 01:43:16;;;;;;;1.55;0.90;;;16.40;73.40;;;;;;5039356;28;20045;-42
2023/10/21 01:45:44;;;;;;;1.65;0.63;;;16.40;73.40;;;;;;5041403;28;20390;-43
2023/10/21 01:48:11;;;;;;;1.38;0.50;;;16.40;73.40;;;;;;5043988;28;20057;-44
2023/10/21 01:50:38;;;;;;;1.73;0.50;;;16.40;73.50;;;;;;5043521;28;20059;-42
2023/10/21 01:53:06;;;;;;;1.75;0.50;;;16.40;73.60;;;;;;5041095;28;20436;-42
2023/10/21 01:55:34;;;;;;;1.65;0.88;;;16.40;73.60;;;;;;5042552;28;20501;-42
2023/10/21 01:58:04;;;;;;;2.92;0.52;;;16.50;73.70;;;;;;5042221;28;20405;-46
2023/10/21 02:00:31;;;;;;;0.98;0.70;;;16.40;73.70;;;;;;5040103;28;20060;-41
2023/10/21 02:02:59;;;;;;;1.33;0.50;;;16.50;73.70;;;;;;5043561;28;20045;-41
2023/10/21 02:05:26;;;;;;;0.52;0.40;;;16.50;73.80;;;;;;5043415;28;20076;-42
2023/10/21 02:07:54;;;;;;;0.77;0.47;;;16.50;73.80;;;;;;5040690;28;20056;-42
2023/10/21 02:10:22;;;;;;;1.63;0.40;;;16.50;73.90;;;;;;5042882;28;20057;-41
2023/10/21 02:12:49;;;;;;;0.98;0.50;;;16.50;73.90;;;;;;5042338;28;20436;-44
2023/10/21 02:15:18;;;;;;;2.65;0.43;;;16.50;73.90;;;;;;5042221;28;20057;-42
2023/10/21 02:17:46;;;;;;;1.95;0.40;;;16.50;74.10;;;;;;5038270;28;20057;-43
2023/10/21 02:20:15;;;;;;;1.02;0.60;;;16.50;74.10;;;;;;5039620;28;20516;-41
2023/10/21 02:22:42;;;;;;;2.47;0.60;;;16.50;74.20;;;;;;5039845;28;20053;-43
2023/10/21 02:25:11;;;;;;;0.80;0.50;;;16.50;74.30;;;;;;5042974;28;20390;-42
2023/10/21 02:27:39;;;;;;;1.48;0.77;;;16.50;74.20;;;;;;5042234;28;20053;-43
2023/10/21 02:30:08;;;;;;;1.02;0.50;;;16.50;74.10;;;;;;5041658;28;20052;-45
2023/10/21 02:32:38;;;;;;;1.30;0.40;;;16.50;74.10;;;;;;5040966;28;20049;-47
2023/10/21 02:35:08;;;;;;;0.52;0.30;;;16.40;73.90;;;;;;5039376;28;20065;-41
2023/10/21 02:37:35;;;;;;;0.77;0.45;;;16.40;73.80;;;;;;5042866;28;20056;-42
2023/10/21 02:40:04;;;;;;;7.60;0.30;;;16.40;74.00;;;;;;5041960;28;20061;-42
2023/10/21 02:42:31;;;;;;;2.05;0.68;;;16.40;74.10;;;;;;5042782;28;20056;-42
2023/10/21 02:44:59;;;;;;;0.95;0.25;;;16.30;74.10;;;;;;5037692;28;20516;-43
2023/10/21 02:47:27;;;;;;;0.82;0.40;;;16.30;74.40;;;;;;5040656;28;20064;-42
2023/10/21 02:49:56;;;;;;;0.60;0.30;;;16.30;74.60;;;;;;5041431;28;20060;-44
2023/10/21 02:52:23;;;;;;;0.60;0.20;;;16.20;74.80;;;;;;5038774;28;20067;-41
2023/10/21 02:54:50;;;;;;;0.55;0.20;;;16.20;75.10;;;;;;5031815;28;20520;-42
2023/10/21 02:57:18;;;;;;;0.32;0.25;;;16.20;75.30;;;;;;5040602;28;20068;-41
2023/10/21 02:59:46;;;;;;;0.98;0.38;;;16.20;75.40;;;;;;5039812;28;20386;-41
2023/10/21 03:02:14;;;;;;;0.30;0.30;;;16.20;75.70;;;;;;5037195;28;20061;-41
2023/10/21 03:04:41;;;;;;;1.42;0.47;;;16.20;75.80;;;;;;5030384;28;20519;-41
2023/10/21 03:07:10;;;;;;;3.20;0.95;;;16.20;75.90;;;;;;5030292;28;20497;-42
2023/10/21 03:09:37;;;;;;;0.80;0.63;;;16.20;76.00;;;;;;5036346;28;20539;-41
2023/10/21 03:12:05;;;;;;;1.13;0.73;;;16.20;76.00;;;;;;5024850;28;20267;-42
2023/10/21 03:14:32;;;;;;;1.10;0.63;;;16.20;76.00;;;;;;5016395;28;20060;-42
2023/10/21 03:17:00;;;;;;;1.08;0.70;;;16.20;76.10;;;;;;5009877;28;20506;-44
2023/10/21 03:19:27;;;;;;;4.43;0.77;;;16.20;76.10;;;;;;5010050;28;20057;-41
2023/10/21 03:21:56;;;;;;;1.10;0.65;;;16.20;76.10;;;;;;5014462;28;20053;-41
2023/10/21 03:24:25;;;;;;;0.88;0.63;;;16.20;76.00;;;;;;5014156;28;20045;-41
2023/10/21 03:26:52;;;;;;;1.33;0.75;;;16.20;76.00;;;;;;5016791;28;20406;-41
2023/10/21 03:29:20;;;;;;;3.15;0.90;;;16.20;75.90;;;;;;5018173;28;20060;-42
2023/10/21 03:31:47;;;;;;;1.42;1.23;;;16.20;76.00;;;;;;5015104;28;20053;-43
2023/10/21 03:34:14;;;;;;;1.23;0.50;;;16.20;75.90;;;;;;5012852;28;20057;-42
2023/10/21 03:36:42;;;;;;;1.05;0.70;;;16.20;75.80;;;;;;5018215;28;20057;-42
2023/10/21 03:39:09;;;;;;;2.65;1.00;;;16.20;75.80;;;;;;5015975;28;20057;-41
2023/10/21 03:41:38;;;;;;;1.15;0.77;;;16.20;75.80;;;;;;5011955;28;20056;-46
2023/10/21 03:44:06;;;;;;;3.50;0.88;;;16.20;75.90;;;;;;5015392;28;20053;-40
2023/10/21 03:46:33;;;;;;;1.63;1.05;;;16.20;75.90;;;;;;5013403;28;20058;-40
2023/10/21 03:49:00;;;;;;;2.75;1.17;;;16.20;75.70;;;;;;5016492;28;20057;-44
2023/10/21 03:51:29;;;;;;;2.65;1.40;;;16.20;75.70;;;;;;5013767;28;20516;-41
2023/10/21 03:53:56;;;;;;;1.50;1.10;;;16.20;75.60;;;;;;5015046;28;20061;-43
2023/10/21 03:56:23;;;;;;;4.78;1.35;;;16.20;75.60;;;;;;5018488;28;20049;-42
2023/10/21 03:58:52;;;;;;;4.97;1.10;;;16.20;75.50;;;;;;5014176;28;20068;-41
2023/10/21 04:01:20;;;;;;;1.92;0.80;;;16.20;75.50;;;;;;5015107;28;20049;-40
2023/10/21 04:03:47;;;;;;;2.97;0.60;;;16.20;75.50;;;;;;5017321;28;20152;-44
2023/10/21 04:06:16;;;;;;;1.65;0.65;;;16.20;75.50;;;;;;5015322;28;20056;-41
2023/10/21 04:08:43;;;;;;;0.80;0.43;;;16.20;75.50;;;;;;5008762;28;20054;-41
2023/10/21 04:11:10;;;;;;;1.75;0.52;;;16.20;75.50;;;;;;5016130;28;21009;-41
2023/10/21 04:13:37;;;;;;;0.90;0.38;;;16.20;75.50;;;;;;5017796;28;20049;-41
2023/10/21 04:16:06;;;;;;;1.10;0.50;;;16.20;75.40;;;;;;5009602;28;20421;-41
2023/10/21 04:18:33;;;;;;;1.25;0.40;;;16.20;75.30;;;;;;5009125;28;20045;-41
2023/10/21 04:21:01;;;;;;;1.30;0.40;;;16.20;75.30;;;;;;5017846;28;20053;-43
2023/10/21 04:23:28;;;;;;;0.98;0.40;;;16.20;75.40;;;;;;5005779;28;20050;-41
2023/10/21 04:25:55;;;;;;;2.85;0.60;;;16.20;75.30;;;;;;5007133;28;20076;-41
2023/10/21 04:28:23;;;;;;;0.30;0.30;;;16.20;75.30;;;;;;5014109;28;20050;-41
2023/10/21 04:30:51;;;;;;;1.33;0.45;;;16.20;75.20;;;;;;5016049;28;20054;-41
2023/10/21 04:33:19;;;;;;;0.60;0.40;;;16.20;75.20;;;;;;5015264;28;20057;-39
2023/10/21 04:35:47;;;;;;;0.85;0.20;;;16.20;75.10;;;;;;5011403;28;20053;-40
2023/10/21 04:38:15;;;;;;;1.15;1.00;;;16.20;75.10;;;;;;5014243;28;20049;-40
2023/10/21 04:40:42;;;;;;;3.20;0.50;;;16.20;74.90;;;;;;5015402;28;21026;-40
2023/10/21 04:43:09;;;;;;;3.03;0.20;;;16.20;74.80;;;;;;5009939;28;20060;-41
2023/10/21 04:45:37;;;;;;;0.85;0.30;;;16.20;74.80;;;;;;5007675;28;20046;-44
2023/10/21 04:48:05;;;;;;;1.02;0.30;;;16.20;74.90;;;;;;5011651;28;20057;-45
2023/10/21 04:50:34;;;;;;;1.92;0.25;;;16.20;74.90;;;;;;5014413;28;20064;-46
2023/10/21 04:53:01;;;;;;;0.17;0.15;;;16.30;75.00;;;;;;5016869;28;20064;-49
2023/10/21 04:55:29;;;;;;;1.88;0.40;;;16.20;74.90;;;;;;5012330;28;20050;-48
2023/10/21 04:57:57;;;;;;;2.38;0.20;;;16.30;74.90;;;;;;5015004;28;20061;-44
2023/10/21 05:00:24;;;;;;;2.42;0.28;;;16.30;74.60;;;;;;5011042;28;20057;-48
2023/10/21 05:02:52;;;;;;;2.40;0.30;;;16.20;74.30;;;;;;5006358;28;20493;-44
2023/10/21 05:05:19;;;;;;;0.93;0.30;;;16.20;74.20;;;;;;5007874;28;20058;-45
2023/10/21 05:07:48;;;;;;;3.50;0.40;;;16.20;74.30;;;;;;5015127;28;21760;-47
2023/10/21 05:10:15;;;;;;;1.58;0.40;;;16.20;74.30;;;;;;5010180;28;20054;-44
2023/10/21 05:12:42;;;;;;;0.65;0.30;;;16.20;74.10;;;;;;5008724;28;20057;-45
2023/10/21 05:15:11;;;;;;;0.50;0.38;;;16.20;74.10;;;;;;5011551;28;20053;-45
2023/10/21 05:17:38;;;;;;;0.95;0.20;;;16.20;74.20;;;;;;5016344;28;21840;-46
2023/10/21 05:20:07;;;;;;;0.82;0.30;;;16.20;74.30;;;;;;5015982;28;20057;-46
2023/10/21 05:22:34;;;;;;;0.47;0.20;;;16.20;75.00;;;;;;5011771;28;20506;-45
2023/10/21 05:25:04;;;;;;;2.42;0.30;;;16.20;74.20;;;;;;5011145;28;20108;-48
2023/10/21 05:27:31;;;;;;;2.58;0.43;;;16.20;74.20;;;;;;5015249;28;20061;-43
2023/10/21 05:29:59;;;;;;;2.85;0.25;;;16.20;74.10;;;;;;5011934;28;20061;-46
2023/10/21 05:32:26;;;;;;;1.40;0.30;;;16.20;74.10;;;;;;5006390;28;20057;-48
2023/10/21 05:34:53;;;;;;;1.92;0.30;;;16.20;74.10;;;;;;4999034;28;20061;-45
2023/10/21 05:37:21;;;;;;;0.13;0.10;;;16.20;74.00;;;;;;5005677;28;20062;-47
2023/10/21 05:39:48;;;;;;;2.70;0.30;;;16.20;74.00;;;;;;5005190;28;20422;-49
2023/10/21 05:42:16;;;;;;;0.55;0.30;;;16.20;74.60;;;;;;4990695;28;20054;-47
2023/10/21 05:44:44;;;;;;;1.50;0.30;;;16.20;73.90;;;;;;4987606;28;20053;-46
2023/10/21 05:47:11;;;;;;;1.20;0.30;;;16.20;73.80;;;;;;4987428;28;20057;-45
2023/10/21 05:49:38;;;;;;;5.05;0.45;;;16.20;73.70;;;;;;4987410;28;20053;-47
2023/10/21 05:52:06;;;;;;;1.38;0.30;;;16.20;73.70;;;;;;4987881;28;20491;-48
2023/10/21 05:54:33;;;;;;;4.10;0.30;;;16.20;73.70;;;;;;4986832;28;20057;-45
2023/10/21 05:57:00;;;;;;;2.83;0.90;;;16.20;73.70;;;;;;4988692;28;20057;-42
2023/10/21 05:59:29;;;;;;;0.85;0.25;;;16.20;73.70;;;;;;4991109;28;20046;-44
2023/10/21 06:01:56;;;;;;;0.82;0.20;;;16.20;73.60;;;;;;4989658;28;20100;-44
2023/10/21 06:04:23;;;;;;;4.68;0.40;;;16.20;73.60;;;;;;4994351;28;21052;-41
2023/10/21 06:06:54;;;;;;;0.63;0.30;;;16.10;73.40;;;;;;4993947;28;20062;-41
2023/10/21 06:09:22;;;;;;;1.98;0.40;;;16.20;73.50;;;;;;4994717;28;20067;-41
2023/10/21 06:11:49;;;;;;;1.52;0.50;;;16.10;73.40;;;;;;4994203;28;20061;-41
2023/10/21 06:14:17;;;;;;;2.22;0.40;;;16.10;73.40;;;;;;4994923;28;20081;-44
2023/10/21 06:16:45;;;;;;;1.85;0.30;;;16.10;73.50;;;;;;4992731;28;20070;-42
2023/10/21 06:19:13;;;;;;;0.40;0.30;;;16.10;73.50;;;;;;4993129;28;20061;-41
2023/10/21 06:21:40;;;;;;;2.13;0.40;;;16.10;73.60;;;;;;4992597;28;20054;-41
2023/10/21 06:24:08;;;;;;;5.07;0.88;;;16.10;73.60;;;;;;4992244;28;20080;-43
2023/10/21 06:26:36;;;;;;;1.92;0.38;;;16.10;73.60;;;;;;4993242;28;20049;-42
2023/10/21 06:29:03;;;;;;;5.40;0.32;;;16.10;73.60;;;;;;4993828;28;20058;-42
2023/10/21 06:31:31;;;;;;;6.30;1.05;;;16.10;73.60;;;;;;4989892;28;20476;-44
2023/10/21 06:34:00;;;;;;;3.35;0.30;;;16.10;73.70;;;;;;4993047;28;20085;-41
2023/10/21 06:36:28;;;;;;;0.55;0.20;;;16.10;74.50;;;;;;4991643;28;20057;-44
2023/10/21 06:38:55;;;;;;;0.85;0.40;;;16.10;74.00;;;;;;4991549;28;20169;-41
2023/10/21 06:41:23;;;;;;;0.80;0.40;;;16.10;74.00;;;;;;4991598;28;20061;-42
2023/10/21 06:43:51;;;;;;;4.13;0.50;;;16.10;74.00;;;;;;4990372;28;20711;-42
2023/10/21 06:46:19;;;;;;;0.88;0.50;;;16.10;74.00;;;;;;4989104;28;20543;-43
2023/10/21 06:48:47;;;;;;;1.73;0.40;;;16.10;73.90;;;;;;4991138;28;20043;-43
2023/10/21 06:51:16;;;;;;;0.52;0.28;;;16.10;73.90;;;;;;4989869;28;20054;-41
2023/10/21 06:53:44;;;;;;;4.10;0.17;;;16.10;74.00;;;;;;4992718;28;20073;-41
2023/10/21 06:56:12;;;;;;;1.10;0.40;;;16.10;74.10;;;;;;4992501;28;20076;-41
2023/10/21 06:58:40;;;;;;;0.82;0.40;;;16.10;74.10;;;;;;4993283;28;20069;-41
2023/10/21 07:01:08;;;;;;;2.38;0.25;;;16.20;74.20;;;;;;4991041;28;20066;-43
2023/10/21 07:03:35;;;;;;;0.68;0.25;;;16.20;74.20;;;;;;4991898;28;20418;-41
2023/10/21 07:06:03;;;;;;;6.68;0.45;;;16.20;74.20;;;;;;4993992;28;20050;-42
2023/10/21 07:08:32;;;;;;;1.33;0.30;;;16.20;74.30;;;;;;4992997;28;20069;-46
2023/10/21 07:10:59;;;;;;;2.38;0.75;;;16.20;74.20;;;;;;4992169;28;20515;-39
2023/10/21 07:13:27;;;;;;;1.83;0.38;;;16.20;74.10;;;;;;4993937;28;20050;-43
2023/10/21 07:15:54;;;;;;;0.30;0.30;;;16.20;73.60;;;;;;4991199;28;20072;-39
2023/10/21 07:18:22;;;;;;;2.05;0.40;;;16.20;73.10;;;;;;4991515;28;20062;-38
2023/10/21 07:20:57;;;;;;;1.65;0.45;;;16.20;72.70;;;;;;4990639;28;20506;-38
2023/10/21 07:23:24;;;;;;;0.20;0.20;;;16.20;72.30;;;;;;4990998;28;20088;-38
2023/10/21 07:25:54;;;;;;;0.40;0.10;;;16.20;72.00;;;;;;4989808;28;20056;-38
2023/10/21 07:28:21;;;;;;;0.82;0.20;;;16.20;72.00;;;;;;4991667;28;20065;-40
2023/10/21 07:30:48;;;;;;;0.88;0.20;;;16.20;71.90;;;;;;4987775;28;20422;-36
2023/10/21 07:33:16;;;;;;;1.98;0.10;;;16.20;71.70;;;;;;4989538;28;20058;-40
2023/10/21 07:35:43;;;;;;;0.40;0.17;;;16.20;71.40;;;;;;4990076;28;20517;-45
2023/10/21 07:38:10;;;;;;;0.75;0.17;;;16.10;70.00;;;;;;4990096;28;20058;-39
2023/10/21 07:40:37;;;;;;;0.03;0.00;;;16.10;69.90;;;;;;4989462;28;20061;-40
2023/10/21 07:43:07;;;;;;;1.60;0.32;;;16.10;70.10;;;;;;4993414;28;20085;-38
2023/10/21 07:45:34;;;;;;;2.38;0.20;;;16.00;69.10;;;;;;4991715;28;20049;-39
2023/10/21 07:48:02;;;;;;;2.78;0.25;;;16.00;68.00;;;;;;4993052;28;20061;-40
2023/10/21 07:50:29;;;;;;;2.80;0.30;;;16.00;67.80;;;;;;4992885;28;20050;-41
2023/10/21 07:52:58;;;;;;;0.95;0.28;;;15.90;67.20;;;;;;4992164;28;20053;-39
2023/10/21 07:55:26;;;;;;;1.20;0.10;;;15.90;67.40;;;;;;4991858;28;20050;-41
2023/10/21 07:57:54;;;;;;;1.60;0.20;;;15.90;67.20;;;;;;4993852;28;20066;-39
2023/10/21 08:00:23;;;;;;;0.85;0.20;;;15.90;67.00;;;;;;4992632;28;20137;-40
2023/10/21 08:02:51;;;;;;;0.75;0.17;;;15.80;67.50;;;;;;4993707;28;20403;-39
2023/10/21 08:05:18;;;;;;;0.85;0.20;;;15.80;68.30;;;;;;4991677;28;20067;-39
2023/10/21 08:07:45;;;;;;;1.17;0.20;;;15.80;68.90;;;;;;4993268;28;20054;-39
2023/10/21 08:10:12;;;;;;;0.95;0.25;;;15.80;69.20;;;;;;4995085;28;20498;-39
2023/10/21 08:12:40;;;;;;;4.60;0.30;;;15.80;69.70;;;;;;4991609;28;20054;-41
2023/10/21 08:15:08;;;;;;;0.68;0.10;;;15.80;69.90;;;;;;4991071;28;20061;-40
2023/10/21 08:17:37;;;;;;;3.97;0.47;;;15.80;70.10;;;;;;4991511;28;20054;-42
2023/10/21 08:20:07;;;;;;;0.47;0.17;;;15.80;68.40;;;;;;4991011;28;20553;-44
2023/10/21 08:22:34;;;;;;;0.52;0.10;;;15.90;68.70;;;;;;4990435;28;20524;-42
2023/10/21 08:25:02;;;;;;;1.60;0.40;;;15.90;68.20;;;;;;4990607;28;20052;-46
2023/10/21 08:27:29;;;;;;;2.10;0.25;;;15.90;66.90;;;;;;4991097;28;20054;-44
2023/10/21 08:29:57;;;;;;;3.25;0.25;;;15.90;66.70;;;;;;4988770;28;20058;-45
2023/10/21 08:32:24;;;;;;;1.45;0.40;;;15.90;66.40;;;;;;4991860;28;20061;-44
2023/10/21 08:34:53;;;;;;;2.85;0.60;;;15.90;66.20;;;;;;4991623;28;20061;-45
2023/10/21 08:37:20;;;;;;;2.78;0.35;;;15.90;66.10;;;;;;4994096;28;20046;-44
2023/10/21 08:39:48;;;;;;;1.48;0.40;;;15.90;65.50;;;;;;4994832;28;20451;-46
2023/10/21 08:42:16;;;;;;;2.53;0.43;;;15.90;65.70;;;;;;4998923;28;20434;-47
2023/10/21 08:44:45;;;;;;;2.63;0.40;;;15.90;64.70;;;;;;4993083;28;20058;-47
2023/10/21 08:47:14;;;;;;;1.52;0.30;;;16.00;65.10;;;;;;4994151;28;20057;-48
2023/10/21 08:49:44;;;;;;;2.55;0.40;;;16.00;64.90;;;;;;4995485;28;20066;-45
2023/10/21 08:52:15;;;;;;;0.63;0.30;;;16.00;65.00;;;;;;4993557;28;20062;-43
2023/10/21 08:54:43;;;;;;;2.40;0.43;;;16.00;65.10;;;;;;4993654;28;20573;-48
2023/10/21 08:57:10;;;;;;;1.95;0.50;;;16.10;65.40;;;;;;4995203;28;20065;-46
2023/10/21 08:59:37;;;;;;;0.50;0.30;;;16.10;64.60;;;;;;4994239;28;20080;-45
2023/10/21 09:02:06;;;;;;;1.98;0.35;;;16.10;63.60;;;;;;4989386;28;20061;-44
2023/10/21 09:04:34;;;;;;;2.53;0.40;;;16.10;63.30;;;;;;4991346;28;20055;-47
2023/10/21 09:07:02;;;;;;;1.38;0.47;;;16.10;63.20;;;;;;4990578;28;20069;-45
2023/10/21 09:09:31;;;;;;;1.48;0.50;;;16.10;63.10;;;;;;4990899;28;20418;-43
2023/10/21 09:12:05;;;;;;;21.33;0.93;;;16.10;62.80;;;;;;4990567;28;20054;-48
2023/10/21 09:14:51;;;;;;;4.03;0.40;;;16.10;61.20;;;;;;4991395;28;20046;-44
2023/10/21 09:17:18;;;;;;;6.80;0.73;;;16.20;61.60;;;;;;4988725;28;20061;-44
2023/10/21 09:19:49;;;;;;;2.90;0.60;;;16.20;61.20;;;;;;4990527;28;20064;-45
2023/10/21 09:22:25;;;;;;;5.93;1.00;;;16.20;59.80;;;;;;4994316;28;20054;-49
2023/10/21 09:25:14;;;;;;;1.50;0.32;;;16.30;60.10;;;;;;4993089;28;20054;-46
2023/10/21 09:27:42;;;;;;;3.30;0.68;;;16.30;61.20;;;;;;4994174;28;20057;-44
2023/10/21 09:30:15;;;;;;;2.85;0.45;;;16.30;61.20;;;;;;4993383;28;20081;-38
2023/10/21 09:32:43;;;;;;;2.88;0.40;;;16.30;61.00;;;;;;4993278;28;20058;-40
2023/10/21 09:35:15;;;;;;;2.58;0.60;;;16.40;60.70;;;;;;4995849;28;20065;-39
2023/10/21 09:37:42;;;;;;;1.90;0.95;;;16.40;59.60;;;;;;4994437;28;20058;-41
2023/10/21 09:40:12;;;;;;;4.70;0.63;;;16.40;59.60;;;;;;4996912;28;20066;-40
2023/10/21 09:42:41;;;;;;;4.88;0.50;;;16.40;59.70;;;;;;4995141;28;20497;-40
2023/10/21 09:45:10;;;;;;;3.53;0.77;;;16.50;60.00;;;;;;4996371;28;20589;-43
2023/10/21 09:47:40;;;;;;;5.30;0.60;;;16.50;59.80;;;;;;4993444;28;20490;-40
2023/10/21 09:50:10;;;;;;;3.58;0.50;;;16.50;59.60;;;;;;4995982;28;20050;-46
2023/10/21 09:52:45;;;;;;;0.82;0.40;;;16.60;59.50;;;;;;4993806;28;20057;-40
2023/10/21 09:55:17;;;;;;;0.80;0.30;;;16.60;59.10;;;;;;4991507;28;20486;-40
2023/10/21 09:57:48;;;;;;;1.88;0.60;;;16.60;59.70;;;;;;4993161;28;20061;-42
2023/10/21 10:00:19;;;;;;;3.75;0.50;;;16.70;58.90;;;;;;4991454;28;20394;-39
2023/10/21 10:02:48;;;;;;;1.63;0.43;;;16.70;59.30;;;;;;4993794;28;20855;-39
2023/10/21 10:05:16;;;;;;;3.47;0.50;;;16.80;58.80;;;;;;4992524;28;20300;-38
2023/10/21 10:07:46;;;;;;;1.40;0.40;;;16.80;58.50;;;;;;4992364;28;20050;-38
2023/10/21 10:10:16;;;;;;;3.30;0.52;;;16.80;58.70;;;;;;4992783;28;20069;-38
2023/10/21 10:12:47;;;;;;;1.17;0.28;;;16.90;58.80;;;;;;4995425;28;20054;-40
2023/10/21 10:15:32;;;;;;;1.17;0.40;;;16.90;59.30;;;;;;4995098;28;20061;-41
2023/10/21 10:18:00;;;;;;;1.80;0.40;;;16.90;58.50;;;;;;4994650;28;20058;-40
2023/10/21 10:20:28;;;;;;;1.85;0.47;;;17.00;58.30;;;;;;4995685;28;20057;-39
2023/10/21 10:22:59;;;;;;;1.52;0.35;;;17.00;58.00;;;;;;4995379;28;20062;-51
2023/10/21 10:25:31;;;;;;;2.70;0.32;;;17.00;58.30;;;;;;4995726;28;20049;-42
2023/10/21 10:28:00;;;;;;;3.33;0.60;;;17.00;59.00;;;;;;4995339;28;20054;-39
2023/10/21 10:30:32;;;;;;;4.50;0.50;;;17.10;58.00;;;;;;4993112;28;20054;-45
2023/10/21 10:33:06;;;;;;;2.33;0.40;;;17.00;58.20;;;;;;4995753;28;20062;-38
2023/10/21 10:35:37;;;;;;;2.95;0.45;;;17.00;58.10;;;;;;4997481;28;20057;-45
2023/10/21 10:38:17;;;;;;;1.48;0.30;;;17.10;57.90;;;;;;4996818;28;20517;-44
2023/10/21 10:40:47;;;;;;;3.28;0.40;;;17.10;57.30;;;;;;4996656;28;20637;-45
2023/10/21 10:43:16;;;;;;;4.72;0.60;;;17.10;57.00;;;;;;4991189;28;20058;-47
2023/10/21 10:45:43;;;;;;;2.03;0.50;;;17.10;56.60;;;;;;4990839;28;20054;-47
2023/10/21 10:48:12;;;;;;;9.40;0.65;;;17.10;56.80;;;;;;4988479;28;20062;-46
2023/10/21 10:50:39;;;;;;;6.03;0.50;;;17.20;56.90;;;;;;4992604;28;20069;-48
2023/10/21 10:53:16;;;;;;;1.45;0.70;;;17.10;56.80;;;;;;4992248;28;20062;-45
2023/10/21 10:55:47;;;;;;;2.97;0.60;;;17.10;56.10;;;;;;4992463;28;20541;-44
2023/10/21 10:58:15;;;;;;;4.07;0.50;;;17.20;55.80;;;;;;4992854;28;20588;-48
2023/10/21 11:00:42;;;;;;;3.25;0.70;;;17.20;56.10;;;;;;4988563;28;20419;-43
2023/10/21 11:03:10;;;;;;;5.30;0.70;;;17.20;55.80;;;;;;4993883;28;20061;-46
2023/10/21 11:05:38;;;;;;;9.60;0.80;;;17.20;55.10;;;;;;4995395;28;20061;-46
2023/10/21 11:08:07;;;;;;;3.90;0.70;;;17.20;55.00;;;;;;4995385;28;20054;-45
2023/10/21 11:10:35;;;;;;;3.00;0.68;;;17.20;54.70;;;;;;4995308;28;20042;-46
2023/10/21 11:13:05;;;;;;;6.50;0.95;;;17.20;55.00;;;;;;4995154;28;20324;-47
2023/10/21 11:15:32;;;;;;;5.28;0.80;;;17.20;54.90;;;;;;4993027;28;20069;-50
2023/10/21 11:18:00;;;;;;;2.35;0.70;;;17.30;55.70;;;;;;4995163;28;20061;-48
2023/10/21 11:20:28;;;;;;;3.25;0.88;;;17.30;55.50;;;;;;4994895;28;20068;-46
2023/10/21 11:22:56;;;;;;;5.90;0.90;;;17.30;54.90;;;;;;4994541;28;20366;-46
2023/10/21 11:25:25;;;;;;;4.15;0.88;;;17.30;54.50;;;;;;4994476;28;20067;-50
2023/10/21 11:27:52;;;;;;;2.22;0.60;;;17.30;54.40;;;;;;4993879;28;20049;-45
2023/10/21 11:30:22;;;;;;;6.35;0.90;;;17.40;54.60;;;;;;4992437;28;20466;-44
2023/10/21 11:32:51;;;;;;;3.83;0.60;;;17.40;54.50;;;;;;4990080;28;20449;-44
2023/10/21 11:35:19;;;;;;;9.63;1.17;;;17.40;54.60;;;;;;4989758;28;20054;-48
2023/10/21 11:37:47;;;;;;;7.30;0.80;;;17.50;54.80;;;;;;4992956;28;20049;-46
2023/10/21 11:40:15;;;;;;;4.80;1.15;;;17.50;54.80;;;;;;4992138;28;20133;-45
2023/10/21 11:42:57;;;;;;;5.30;1.13;;;17.50;54.30;;;;;;4992010;28;20064;-48
2023/10/21 11:45:29;;;;;;;5.10;1.00;;;17.60;54.50;;;;;;4990068;28;20525;-46
2023/10/21 11:47:57;;;;;;;4.93;1.38;;;17.70;54.30;;;;;;4986773;28;20058;-46
2023/10/21 11:50:25;;;;;;;8.60;1.40;;;17.70;53.90;;;;;;4989252;28;20062;-46
2023/10/21 11:52:52;;;;;;;5.18;0.95;;;17.70;53.60;;;;;;4992526;28;20068;-46
2023/10/21 11:55:38;;;;;;;4.90;1.17;;;17.80;53.50;;;;;;4993299;28;20058;-44
2023/10/21 11:59:53;;;;;;;9.50;1.42;;;17.80;53.30;;;;;;4993828;28;20062;-47
2023/10/21 12:02:25;;;;;;;3.70;0.82;;;17.80;52.60;;;;;;4992024;28;20056;-46
2023/10/21 12:07:45;;;;;;;7.28;1.27;;;17.90;53.10;;;;;;4994591;28;20374;-48
2023/10/21 12:13:27;;;;;;;1.83;0.73;;;18.00;52.80;;;;;;4994496;28;20042;-46
2023/10/21 12:16:24;;;;;;;5.65;0.90;;;18.00;52.80;;;;;;4995202;28;20789;-47
2023/10/21 12:22:21;;;;;;;6.60;1.00;;;18.00;52.50;;;;;;4941576;28;20063;-51
2023/10/21 12:36:32;;;;;;;7.18;1.40;;;18.10;51.70;;;;;;4976007;28;20046;-43
2023/10/21 12:41:41;;;;;;;7.38;0.93;;;18.20;51.20;;;;;;4994198;28;20054;-46
2023/10/21 12:44:13;;;;;;;7.53;1.52;;;18.20;51.40;;;;;;4996200;28;20513;-44
2023/10/21 12:46:41;;;;;;;5.30;1.45;;;18.20;51.30;;;;;;4994777;28;20054;-46
2023/10/21 12:49:13;;;;;;;4.85;1.20;;;18.20;51.50;;;;;;4994170;28;20054;-48
2023/10/21 12:51:42;;;;;;;8.82;1.38;;;18.30;51.00;;;;;;4993546;28;20046;-48
2023/10/21 12:54:11;;;;;;;7.15;1.05;;;18.30;51.10;;;;;;4994665;28;20541;-46
2023/10/21 12:56:38;;;;;;;5.40;1.25;;;18.30;50.90;;;;;;4995285;28;20069;-39
2023/10/21 12:59:06;;;;;;;6.00;1.00;;;18.40;50.30;;;;;;4995996;28;21078;-41
2023/10/21 13:01:34;;;;;;;4.60;1.23;;;18.40;49.60;;;;;;4994988;28;20053;-41
2023/10/21 13:04:01;;;;;;;5.03;1.13;;;18.40;49.50;;;;;;4995360;28;20761;-40
2023/10/21 13:06:28;;;;;;;6.88;1.30;;;18.40;48.80;;;;;;4993929;28;20049;-44
2023/10/21 13:08:57;;;;;;;6.03;1.40;;;18.50;48.90;;;;;;4994994;28;20046;-41
2023/10/21 13:11:26;;;;;;;3.42;1.00;;;18.50;48.40;;;;;;4990368;28;20418;-41
2023/10/21 13:13:55;;;;;;;6.75;1.42;;;18.50;49.50;;;;;;4988203;28;20061;-43
2023/10/21 13:16:22;;;;;;;6.75;1.10;;;18.50;49.40;;;;;;4987827;28;20055;-42
2023/10/21 13:18:51;;;;;;;4.00;1.35;;;18.50;49.30;;;;;;4988621;28;20426;-39
2023/10/21 13:21:21;;;;;;;5.28;1.17;;;18.50;48.60;;;;;;4990767;28;20414;-43